createdAt,value
2018-08-25T00:00:25.629Z,99106.20
2018-08-25T00:00:56.739Z,99105.11
2018-08-25T00:01:27.877Z,99110.93
2018-08-25T00:01:59.784Z,99105.71
2018-08-25T00:02:30.893Z,99106.71
2018-08-25T00:03:02.006Z,99099.70
2018-08-25T00:03:33.128Z,99110.21
2018-08-25T00:04:04.283Z,99110.61
2018-08-25T00:04:35.388Z,99110.02
2018-08-25T00:05:06.501Z,99109.66
2018-08-25T00:05:37.615Z,99108.93
2018-08-25T00:06:08.724Z,99101.09
2018-08-25T00:06:39.853Z,99103.28
2018-08-25T00:07:10.972Z,99106.67
2018-08-25T00:07:42.127Z,99104.75
2018-08-25T00:08:13.237Z,99104.52
2018-08-25T00:08:44.363Z,99104.03
2018-08-25T00:09:15.470Z,99110.94
2018-08-25T00:09:46.581Z,99111.54
2018-08-25T00:10:17.700Z,99111.31
2018-08-25T00:10:48.830Z,99109.12
2018-08-25T00:11:19.975Z,99115.89
2018-08-25T00:11:51.091Z,99117.22
2018-08-25T00:12:22.211Z,99116.39
2018-08-25T00:12:53.330Z,99113.97
2018-08-25T00:13:24.446Z,99115.42
2018-08-25T00:13:55.582Z,99113.47
2018-08-25T00:14:26.695Z,99114.43
2018-08-25T00:14:57.809Z,99116.39
2018-08-25T00:15:28.925Z,99112.50
2018-08-25T00:16:00.036Z,99113.94
2018-08-25T00:16:31.179Z,99114.56
2018-08-25T00:17:02.295Z,99116.86
2018-08-25T00:17:33.411Z,99117.45
2018-08-25T00:18:04.560Z,99115.30
2018-08-25T00:18:35.675Z,99115.43
2018-08-25T00:19:06.781Z,99121.58
2018-08-25T00:19:37.899Z,99115.92
2018-08-25T00:20:09.053Z,99111.94
2018-08-25T00:20:40.164Z,99118.58
2018-08-25T00:21:11.324Z,99118.91
2018-08-25T00:21:42.438Z,99112.64
2018-08-25T00:22:13.549Z,99111.31
2018-08-25T00:22:44.665Z,99116.98
2018-08-25T00:23:15.776Z,99112.05
2018-08-25T00:23:46.884Z,99110.34
2018-08-25T00:24:17.996Z,99115.30
2018-08-25T00:24:49.104Z,99118.91
2018-08-25T00:25:20.227Z,99117.25
2018-08-25T00:25:51.345Z,99115.92
2018-08-25T00:26:22.494Z,99119.78
2018-08-25T00:26:53.652Z,99118.72
2018-08-25T00:27:24.759Z,99113.62
2018-08-25T00:27:55.884Z,99118.95
2018-08-25T00:28:26.992Z,99115.59
2018-08-25T00:28:58.096Z,99116.19
2018-08-25T00:29:29.205Z,99114.36
2018-08-25T00:30:00.325Z,99116.55
2018-08-25T00:30:31.496Z,99118.84
2018-08-25T00:31:02.627Z,99117.02
2018-08-25T00:31:33.736Z,99114.36
2018-08-25T00:32:04.942Z,99115.69
2018-08-25T00:32:36.060Z,99116.69
2018-08-25T00:33:07.170Z,99121.50
2018-08-25T00:33:38.348Z,99118.23
2018-08-25T00:34:09.569Z,99117.05
2018-08-25T00:34:40.681Z,99115.34
2018-08-25T00:35:11.841Z,99118.97
2018-08-25T00:35:43.017Z,99127.56
2018-08-25T00:36:14.957Z,99125.14
2018-08-25T00:36:46.104Z,99123.80
2018-08-25T00:37:17.251Z,99130.08
2018-08-25T00:37:48.376Z,99120.55
2018-08-25T00:38:19.495Z,99123.34
2018-08-25T00:38:50.611Z,99119.11
2018-08-25T00:39:21.722Z,99122.86
2018-08-25T00:39:52.849Z,99129.13
2018-08-25T00:40:23.964Z,99118.77
2018-08-25T00:40:55.076Z,99125.27
2018-08-25T00:41:26.256Z,99128.55
2018-08-25T00:41:57.478Z,99126.48
2018-08-25T00:42:28.710Z,99124.66
2018-08-25T00:42:59.835Z,99129.14
2018-08-25T00:43:30.992Z,99124.80
2018-08-25T00:44:02.114Z,99123.97
2018-08-25T00:44:33.296Z,99122.63
2018-08-25T00:45:04.460Z,99121.41
2018-08-25T00:45:35.644Z,99126.02
2018-08-25T00:46:06.797Z,99119.97
2018-08-25T00:46:37.967Z,99125.64
2018-08-25T00:47:09.148Z,99126.14
2018-08-25T00:47:40.270Z,99126.38
2018-08-25T00:48:11.392Z,99120.70
2018-08-25T00:48:42.507Z,99128.04
2018-08-25T00:49:13.674Z,99125.52
2018-08-25T00:49:44.793Z,99122.39
2018-08-25T00:50:15.904Z,99124.19
2018-08-25T00:50:47.086Z,99120.94
2018-08-25T00:51:18.240Z,99123.47
2018-08-25T00:51:49.426Z,99123.47
2018-08-25T00:52:20.572Z,99123.09
2018-08-25T00:52:51.676Z,99124.05
2018-08-25T00:53:22.841Z,99126.23
2018-08-25T00:53:54.018Z,99126.97
2018-08-25T00:54:25.195Z,99127.70
2018-08-25T00:54:56.300Z,99127.45
2018-08-25T00:55:27.408Z,99130.70
2018-08-25T00:55:58.523Z,99124.07
2018-08-25T00:56:29.689Z,99127.45
2018-08-25T00:57:00.812Z,99129.62
2018-08-25T00:57:32.091Z,99130.35
2018-08-25T00:58:03.232Z,99135.17
2018-08-25T00:58:34.351Z,99127.22
2018-08-25T00:59:05.528Z,99124.80
2018-08-25T00:59:36.656Z,99129.39
2018-08-25T01:00:07.785Z,99125.90
2018-08-25T01:00:38.901Z,99127.23
2018-08-25T01:01:10.187Z,99123.36
2018-08-25T01:01:41.368Z,99124.55
2018-08-25T01:02:12.485Z,99123.09
2018-08-25T01:02:43.591Z,99126.71
2018-08-25T01:03:14.757Z,99126.02
2018-08-25T01:03:45.941Z,99128.66
2018-08-25T01:04:17.053Z,99121.90
2018-08-25T01:04:48.281Z,99129.27
2018-08-25T01:05:19.476Z,99129.88
2018-08-25T01:05:50.657Z,99128.78
2018-08-25T01:06:21.933Z,99132.77
2018-08-25T01:06:53.123Z,99128.29
2018-08-25T01:07:24.227Z,99131.31
2018-08-25T01:07:55.359Z,99132.38
2018-08-25T01:08:26.529Z,99132.38
2018-08-25T01:08:57.693Z,99129.96
2018-08-25T01:09:28.811Z,99129.00
2018-08-25T01:09:59.927Z,99134.22
2018-08-25T01:10:31.102Z,99130.33
2018-08-25T01:11:02.227Z,99130.72
2018-08-25T01:11:33.391Z,99129.72
2018-08-25T01:12:04.494Z,99132.16
2018-08-25T01:12:35.661Z,99136.88
2018-08-25T01:13:06.813Z,99131.89
2018-08-25T01:13:37.985Z,99133.22
2018-08-25T01:14:09.157Z,99133.22
2018-08-25T01:14:40.334Z,99131.30
2018-08-25T01:15:11.510Z,99126.73
2018-08-25T01:15:42.819Z,99126.46
2018-08-25T01:16:13.932Z,99136.73
2018-08-25T01:16:45.166Z,99133.94
2018-08-25T01:17:16.273Z,99133.08
2018-08-25T01:17:47.508Z,99130.20
2018-08-25T01:18:18.698Z,99128.64
2018-08-25T01:18:49.821Z,99135.97
2018-08-25T01:19:21.000Z,99131.53
2018-08-25T01:19:52.185Z,99126.67
2018-08-25T01:20:23.300Z,99131.89
2018-08-25T01:20:54.427Z,99129.23
2018-08-25T01:21:25.617Z,99127.91
2018-08-25T01:21:56.836Z,99130.80
2018-08-25T01:22:27.956Z,99131.99
2018-08-25T01:22:59.082Z,99128.38
2018-08-25T01:23:30.322Z,99133.56
2018-08-25T01:24:02.352Z,99132.46
2018-08-25T01:24:33.534Z,99129.55
2018-08-25T01:25:04.764Z,99126.05
2018-08-25T01:25:35.944Z,99129.20
2018-08-25T01:26:07.073Z,99127.75
2018-08-25T01:26:38.297Z,99129.20
2018-08-25T01:27:09.468Z,99130.77
2018-08-25T01:27:40.647Z,99126.78
2018-08-25T01:28:11.816Z,99131.86
2018-08-25T01:28:42.998Z,99129.94
2018-08-25T01:29:14.117Z,99132.85
2018-08-25T01:29:45.337Z,99131.53
2018-08-25T01:30:16.522Z,99128.50
2018-08-25T01:30:47.641Z,99129.09
2018-08-25T01:31:18.763Z,99128.40
2018-08-25T01:31:49.877Z,99130.82
2018-08-25T01:32:21.025Z,99131.28
2018-08-25T01:32:52.172Z,99129.22
2018-08-25T01:33:23.405Z,99129.22
2018-08-25T01:33:54.543Z,99131.41
2018-08-25T01:34:25.721Z,99134.67
2018-08-25T01:34:56.840Z,99133.47
2018-08-25T01:35:27.953Z,99132.64
2018-08-25T01:35:59.116Z,99135.16
2018-08-25T01:36:30.244Z,99135.75
2018-08-25T01:37:01.461Z,99138.05
2018-08-25T01:37:32.644Z,99136.95
2018-08-25T01:38:03.862Z,99142.27
2018-08-25T01:38:35.021Z,99139.61
2018-08-25T01:39:06.198Z,99137.82
2018-08-25T01:39:37.373Z,99142.39
2018-08-25T01:40:08.517Z,99138.91
2018-08-25T01:40:39.725Z,99138.05
2018-08-25T01:41:10.892Z,99140.23
2018-08-25T01:41:42.066Z,99135.62
2018-08-25T01:42:13.288Z,99137.19
2018-08-25T01:42:44.455Z,99140.34
2018-08-25T01:43:15.600Z,99141.45
2018-08-25T01:43:46.817Z,99144.34
2018-08-25T01:44:17.980Z,99135.63
2018-08-25T01:44:49.159Z,99141.54
2018-08-25T01:45:20.280Z,99142.17
2018-08-25T01:45:51.435Z,99142.27
2018-08-25T01:46:22.646Z,99140.70
2018-08-25T01:46:53.828Z,99146.63
2018-08-25T01:47:24.945Z,99144.10
2018-08-25T01:47:56.112Z,99143.14
2018-08-25T01:48:27.234Z,99147.13
2018-08-25T01:48:58.431Z,99149.41
2018-08-25T01:49:29.668Z,99142.28
2018-08-25T01:50:00.836Z,99144.10
2018-08-25T01:50:31.963Z,99149.88
2018-08-25T01:51:03.168Z,99148.67
2018-08-25T01:51:34.332Z,99148.44
2018-08-25T01:52:05.498Z,99149.53
2018-08-25T01:52:36.611Z,99145.31
2018-08-25T01:53:07.783Z,99149.55
2018-08-25T01:53:38.960Z,99145.20
2018-08-25T01:54:10.112Z,99145.06
2018-08-25T01:54:41.227Z,99147.96
2018-08-25T01:55:12.420Z,99149.42
2018-08-25T01:55:43.592Z,99147.96
2018-08-25T01:56:14.773Z,99142.52
2018-08-25T01:56:46.018Z,99144.81
2018-08-25T01:57:17.218Z,99145.30
2018-08-25T01:57:48.396Z,99138.67
2018-08-25T01:58:19.577Z,99144.30
2018-08-25T01:58:50.795Z,99142.27
2018-08-25T01:59:21.912Z,99142.49
2018-08-25T01:59:53.139Z,99141.16
2018-08-25T02:00:24.330Z,99136.45
2018-08-25T02:00:55.453Z,99138.27
2018-08-25T02:01:26.609Z,99144.30
2018-08-25T02:01:57.714Z,99138.98
2018-08-25T02:02:28.878Z,99134.77
2018-08-25T02:03:00.122Z,99140.58
2018-08-25T02:03:31.307Z,99139.25
2018-08-25T02:04:02.528Z,99133.57
2018-08-25T02:04:33.640Z,99138.14
2018-08-25T02:05:04.757Z,99133.45
2018-08-25T02:05:35.877Z,99138.77
2018-08-25T02:06:07.139Z,99138.02
2018-08-25T02:06:38.257Z,99138.77
2018-08-25T02:07:09.421Z,99136.70
2018-08-25T02:07:40.655Z,99136.20
2018-08-25T02:08:11.774Z,99139.72
2018-08-25T02:08:42.959Z,99139.35
2018-08-25T02:09:14.141Z,99137.29
2018-08-25T02:09:45.252Z,99144.17
2018-08-25T02:10:16.448Z,99142.11
2018-08-25T02:10:47.576Z,99140.66
2018-08-25T02:11:56.056Z,99142.83
2018-08-25T02:12:27.309Z,99141.14
2018-08-25T02:12:58.546Z,99146.66
2018-08-25T02:13:29.664Z,99142.68
2018-08-25T02:14:00.782Z,99148.84
2018-08-25T02:14:31.949Z,99142.22
2018-08-25T02:15:03.136Z,99145.83
2018-08-25T02:15:34.307Z,99137.13
2018-08-25T02:16:05.476Z,99142.93
2018-08-25T02:16:36.627Z,99147.87
2018-08-25T02:17:07.807Z,99139.66
2018-08-25T02:17:38.981Z,99144.97
2018-08-25T02:18:10.144Z,99141.70
2018-08-25T02:18:41.364Z,99143.98
2018-08-25T02:19:12.485Z,99143.16
2018-08-25T02:19:43.608Z,99143.16
2018-08-25T02:20:14.788Z,99141.83
2018-08-25T02:20:46.013Z,99142.56
2018-08-25T02:21:17.189Z,99143.27
2018-08-25T02:21:48.311Z,99145.09
2018-08-25T02:22:19.480Z,99140.37
2018-08-25T02:22:50.645Z,99144.48
2018-08-25T02:23:21.820Z,99147.25
2018-08-25T02:23:53.024Z,99141.58
2018-08-25T02:24:24.127Z,99142.53
2018-08-25T02:24:55.364Z,99142.41
2018-08-25T02:25:26.535Z,99147.25
2018-08-25T02:25:57.654Z,99145.68
2018-08-25T02:26:28.778Z,99144.94
2018-08-25T02:26:59.890Z,99140.00
2018-08-25T02:27:31.036Z,99141.45
2018-08-25T02:28:02.203Z,99138.93
2018-08-25T02:28:33.284Z,99142.16
2018-08-25T02:29:04.403Z,99143.38
2018-08-25T02:29:35.607Z,99148.55
2018-08-25T02:30:06.849Z,99143.09
2018-08-25T02:30:38.081Z,99145.13
2018-08-25T02:31:09.263Z,99142.66
2018-08-25T02:31:40.453Z,99145.55
2018-08-25T02:32:11.637Z,99145.77
2018-08-25T02:32:42.805Z,99146.75
2018-08-25T02:33:14.128Z,99143.36
2018-08-25T02:33:45.297Z,99141.66
2018-08-25T02:34:16.477Z,99142.03
2018-08-25T02:34:47.656Z,99141.66
2018-08-25T02:35:18.829Z,99145.27
2018-08-25T02:35:49.992Z,99145.02
2018-08-25T02:36:21.109Z,99144.19
2018-08-25T02:36:52.281Z,99143.44
2018-08-25T02:37:23.450Z,99143.44
2018-08-25T02:37:54.608Z,99139.47
2018-08-25T02:38:25.712Z,99142.98
2018-08-25T02:38:57.686Z,99140.79
2018-08-25T02:39:28.856Z,99143.94
2018-08-25T02:39:59.972Z,99138.14
2018-08-25T02:40:31.148Z,99142.86
2018-08-25T02:41:02.313Z,99139.25
2018-08-25T02:41:34.376Z,99140.58
2018-08-25T02:42:05.484Z,99139.59
2018-08-25T02:42:36.611Z,99141.53
2018-08-25T02:43:07.752Z,99138.39
2018-08-25T02:43:38.918Z,99142.00
2018-08-25T02:44:10.093Z,99145.97
2018-08-25T02:44:41.319Z,99138.52
2018-08-25T02:45:12.502Z,99143.23
2018-08-25T02:45:43.677Z,99138.39
2018-08-25T02:46:14.860Z,99135.62
2018-08-25T02:46:46.016Z,99138.64
2018-08-25T02:47:17.468Z,99142.16
2018-08-25T02:47:52.034Z,99146.47
2018-08-25T02:48:28.633Z,99140.92
2018-08-25T02:49:03.022Z,99146.83
2018-08-25T02:49:34.997Z,99141.28
2018-08-25T02:50:06.140Z,99143.20
2018-08-25T02:50:37.278Z,99138.97
2018-08-25T02:51:10.768Z,99143.44
2018-08-25T02:51:43.237Z,99143.89
2018-08-25T02:52:14.944Z,99142.70
2018-08-25T02:52:48.972Z,99146.09
2018-08-25T02:53:20.397Z,99149.20
2018-08-25T02:53:53.179Z,99152.80
2018-08-25T02:54:26.190Z,99148.83
2018-08-25T02:54:58.646Z,99146.30
2018-08-25T02:56:12.730Z,99150.52
2018-08-25T02:56:48.359Z,99144.84
2018-08-25T02:57:20.422Z,99145.67
2018-08-25T02:57:51.595Z,99140.37
2018-08-25T02:58:22.721Z,99137.98
2018-08-25T02:58:53.949Z,99140.25
2018-08-25T02:59:25.067Z,99109.23
2018-08-25T02:59:56.232Z,99136.65
2018-08-25T03:00:27.437Z,99133.55
2018-08-25T03:00:58.550Z,99136.19
2018-08-25T03:01:29.731Z,99136.19
2018-08-25T03:02:00.905Z,99135.82
2018-08-25T03:02:32.073Z,99136.77
2018-08-25T03:03:03.296Z,99140.62
2018-08-25T03:03:34.436Z,99141.57
2018-08-25T03:04:05.668Z,99138.18
2018-08-25T03:04:36.848Z,99145.41
2018-08-25T03:05:08.033Z,99144.42
2018-08-25T03:05:39.305Z,99149.72
2018-08-25T03:06:10.446Z,99139.37
2018-08-25T03:06:41.594Z,99138.70
2018-08-25T03:07:12.752Z,99144.81
2018-08-25T03:07:43.870Z,99143.16
2018-08-25T03:08:15.037Z,99147.13
2018-08-25T03:08:46.269Z,99139.19
2018-08-25T03:09:17.457Z,99140.50
2018-08-25T03:09:48.677Z,99140.84
2018-08-25T03:10:19.788Z,99141.83
2018-08-25T03:10:50.935Z,99139.52
2018-08-25T03:11:22.102Z,99136.30
2018-08-25T03:11:53.220Z,99140.14
2018-08-25T03:12:24.389Z,99137.88
2018-08-25T03:12:55.960Z,99142.67
2018-08-25T03:13:27.156Z,99140.40
2018-08-25T03:13:58.291Z,99136.05
2018-08-25T03:14:29.508Z,99142.67
2018-08-25T03:15:00.727Z,99141.02
2018-08-25T03:15:31.912Z,99147.97
2018-08-25T03:16:03.083Z,99145.19
2018-08-25T03:16:34.197Z,99141.83
2018-08-25T03:17:05.365Z,99143.16
2018-08-25T03:17:36.480Z,99141.59
2018-08-25T03:18:07.641Z,99146.89
2018-08-25T03:18:38.764Z,99149.42
2018-08-25T03:19:09.941Z,99143.28
2018-08-25T03:19:41.116Z,99148.47
2018-08-25T03:20:12.321Z,99149.79
2018-08-25T03:20:43.481Z,99148.58
2018-08-25T03:21:14.588Z,99146.14
2018-08-25T03:21:45.762Z,99145.80
2018-08-25T03:22:16.920Z,99146.38
2018-08-25T03:22:48.214Z,99148.66
2018-08-25T03:23:19.331Z,99148.78
2018-08-25T03:23:50.440Z,99145.96
2018-08-25T03:24:21.616Z,99151.38
2018-08-25T03:24:52.788Z,99150.05
2018-08-25T03:25:23.957Z,99149.47
2018-08-25T03:25:55.193Z,99149.36
2018-08-25T03:26:26.311Z,99150.68
2018-08-25T03:26:57.532Z,99147.66
2018-08-25T03:27:28.767Z,99145.88
2018-08-25T03:27:59.980Z,99149.47
2018-08-25T03:28:31.087Z,99153.45
2018-08-25T03:29:02.297Z,99149.59
2018-08-25T03:29:33.436Z,99147.52
2018-08-25T03:30:04.669Z,99153.31
2018-08-25T03:30:35.787Z,99150.29
2018-08-25T03:31:06.901Z,99148.36
2018-08-25T03:31:38.084Z,99154.97
2018-08-25T03:32:09.257Z,99147.03
2018-08-25T03:32:40.439Z,99149.68
2018-08-25T03:33:11.620Z,99146.69
2018-08-25T03:33:42.794Z,99146.31
2018-08-25T03:34:14.049Z,99146.44
2018-08-25T03:34:45.169Z,99150.41
2018-08-25T03:35:16.286Z,99147.47
2018-08-25T03:35:47.401Z,99148.80
2018-08-25T03:36:18.604Z,99143.88
2018-08-25T03:36:49.806Z,99150.03
2018-08-25T03:37:20.975Z,99148.97
2018-08-25T03:37:52.217Z,99145.11
2018-08-25T03:38:23.407Z,99149.08
2018-08-25T03:38:54.512Z,99145.94
2018-08-25T03:39:25.676Z,99146.89
2018-08-25T03:39:56.830Z,99142.17
2018-08-25T03:40:28.055Z,99140.14
2018-08-25T03:40:59.184Z,99144.69
2018-08-25T03:41:30.299Z,99145.30
2018-08-25T03:42:01.464Z,99142.73
2018-08-25T03:42:32.707Z,99144.27
2018-08-25T03:43:03.896Z,99148.23
2018-08-25T03:43:35.127Z,99147.74
2018-08-25T03:44:06.303Z,99147.08
2018-08-25T03:44:37.456Z,99140.00
2018-08-25T03:45:08.617Z,99142.41
2018-08-25T03:45:39.820Z,99154.95
2018-08-25T03:46:11.000Z,99146.89
2018-08-25T03:46:42.108Z,99145.20
2018-08-25T03:47:13.216Z,99148.34
2018-08-25T03:47:44.325Z,99147.96
2018-08-25T03:48:15.512Z,99150.98
2018-08-25T03:48:46.776Z,99150.50
2018-08-25T03:49:17.996Z,99149.08
2018-08-25T03:49:49.266Z,99152.94
2018-08-25T03:50:20.399Z,99148.73
2018-08-25T03:50:51.520Z,99149.09
2018-08-25T03:51:22.628Z,99149.84
2018-08-25T03:51:53.734Z,99154.19
2018-08-25T03:52:24.901Z,99149.23
2018-08-25T03:52:56.093Z,99156.34
2018-08-25T03:53:27.220Z,99150.56
2018-08-25T03:53:58.367Z,99148.41
2018-08-25T03:54:29.471Z,99149.84
2018-08-25T03:55:00.634Z,99151.75
2018-08-25T03:55:31.811Z,99150.80
2018-08-25T03:56:02.989Z,99153.33
2018-08-25T03:56:34.217Z,99151.42
2018-08-25T03:57:05.491Z,99154.33
2018-08-25T03:57:36.673Z,99156.40
2018-08-25T03:58:07.779Z,99155.20
2018-08-25T03:58:39.032Z,99153.64
2018-08-25T03:59:10.192Z,99156.09
2018-08-25T03:59:41.318Z,99154.06
2018-08-25T04:00:12.480Z,99152.49
2018-08-25T04:00:43.603Z,99159.38
2018-08-25T04:01:14.798Z,99157.47
2018-08-25T04:01:45.985Z,99156.52
2018-08-25T04:02:17.112Z,99156.39
2018-08-25T04:02:48.286Z,99157.97
2018-08-25T04:03:19.462Z,99156.16
2018-08-25T04:03:50.733Z,99156.06
2018-08-25T04:04:21.896Z,99156.52
2018-08-25T04:04:53.080Z,99157.47
2018-08-25T04:05:24.289Z,99158.71
2018-08-25T04:05:55.449Z,99155.08
2018-08-25T04:06:26.634Z,99154.87
2018-08-25T04:06:57.821Z,99161.38
2018-08-25T04:07:28.935Z,99158.97
2018-08-25T04:08:00.048Z,99153.46
2018-08-25T04:08:31.314Z,99154.17
2018-08-25T04:09:02.443Z,99156.48
2018-08-25T04:09:33.619Z,99153.13
2018-08-25T04:10:04.855Z,99151.75
2018-08-25T04:10:35.976Z,99153.45
2018-08-25T04:11:07.091Z,99153.36
2018-08-25T04:11:38.267Z,99151.81
2018-08-25T04:12:09.444Z,99154.25
2018-08-25T04:12:40.613Z,99149.80
2018-08-25T04:13:11.726Z,99155.97
2018-08-25T04:13:42.855Z,99151.52
2018-08-25T04:14:14.096Z,99147.20
2018-08-25T04:14:45.319Z,99148.05
2018-08-25T04:15:16.439Z,99149.49
2018-08-25T04:15:47.553Z,99156.25
2018-08-25T04:16:18.660Z,99159.98
2018-08-25T04:16:49.785Z,99155.40
2018-08-25T04:17:20.920Z,99158.77
2018-08-25T04:17:52.086Z,99157.78
2018-08-25T04:18:23.249Z,99155.97
2018-08-25T04:18:54.469Z,99160.91
2018-08-25T04:19:25.588Z,99159.30
2018-08-25T04:19:56.759Z,99158.94
2018-08-25T04:20:27.877Z,99161.84
2018-08-25T04:20:59.040Z,99153.77
2018-08-25T04:21:30.165Z,99161.71
2018-08-25T04:22:01.331Z,99159.33
2018-08-25T04:22:32.537Z,99158.28
2018-08-25T04:23:03.677Z,99161.16
2018-08-25T04:23:34.788Z,99160.47
2018-08-25T04:24:05.955Z,99161.20
2018-08-25T04:24:37.143Z,99162.78
2018-08-25T04:25:08.379Z,99164.00
2018-08-25T04:25:39.500Z,99161.49
2018-08-25T04:26:10.658Z,99161.02
2018-08-25T04:26:41.828Z,99166.31
2018-08-25T04:27:12.964Z,99161.83
2018-08-25T04:27:44.138Z,99161.58
2018-08-25T04:28:15.340Z,99163.59
2018-08-25T04:28:46.448Z,99162.27
2018-08-25T04:29:17.564Z,99157.91
2018-08-25T04:29:48.768Z,99161.73
2018-08-25T04:30:19.887Z,99154.67
2018-08-25T04:30:51.044Z,99151.97
2018-08-25T04:31:22.221Z,99158.23
2018-08-25T04:31:53.356Z,99154.66
2018-08-25T04:32:24.565Z,99158.28
2018-08-25T04:32:55.833Z,99151.20
2018-08-25T04:33:27.034Z,99161.16
2018-08-25T04:33:58.163Z,99155.77
2018-08-25T04:34:29.338Z,99158.81
2018-08-25T04:35:00.525Z,99157.07
2018-08-25T04:35:31.736Z,99153.02
2018-08-25T04:36:02.852Z,99154.17
2018-08-25T04:36:33.972Z,99149.68
2018-08-25T04:37:05.136Z,99152.64
2018-08-25T04:37:36.359Z,99151.34
2018-08-25T04:38:07.577Z,99148.00
2018-08-25T04:38:38.691Z,99151.02
2018-08-25T04:39:09.917Z,99150.03
2018-08-25T04:39:41.100Z,99152.72
2018-08-25T04:40:12.265Z,99148.27
2018-08-25T04:40:43.383Z,99150.19
2018-08-25T04:41:14.626Z,99149.28
2018-08-25T04:41:45.709Z,99153.91
2018-08-25T04:42:16.823Z,99146.27
2018-08-25T04:42:47.975Z,99151.27
2018-08-25T04:43:19.129Z,99155.63
2018-08-25T04:43:50.291Z,99151.51
2018-08-25T04:44:21.407Z,99159.88
2018-08-25T04:44:52.581Z,99157.80
2018-08-25T04:45:23.826Z,99157.16
2018-08-25T04:45:54.943Z,99156.64
2018-08-25T04:46:26.170Z,99158.02
2018-08-25T04:46:57.353Z,99158.47
2018-08-25T04:47:28.475Z,99161.02
2018-08-25T04:47:59.662Z,99160.99
2018-08-25T04:48:30.895Z,99159.78
2018-08-25T04:49:02.125Z,99161.98
2018-08-25T04:49:33.325Z,99162.66
2018-08-25T04:50:04.497Z,99159.80
2018-08-25T04:50:35.699Z,99160.11
2018-08-25T04:51:06.823Z,99157.87
2018-08-25T04:51:38.041Z,99153.77
2018-08-25T04:52:09.164Z,99160.89
2018-08-25T04:52:40.340Z,99160.29
2018-08-25T04:53:11.492Z,99163.44
2018-08-25T04:53:42.708Z,99155.74
2018-08-25T04:54:13.825Z,99159.91
2018-08-25T04:54:44.995Z,99157.62
2018-08-25T04:55:16.238Z,99158.08
2018-08-25T04:55:47.458Z,99157.72
2018-08-25T04:56:18.655Z,99166.01
2018-08-25T04:56:49.832Z,99140.62
2018-08-25T04:57:21.032Z,99163.08
2018-08-25T04:57:52.213Z,99163.52
2018-08-25T04:58:23.460Z,99162.33
2018-08-25T04:58:54.645Z,99157.55
2018-08-25T04:59:25.765Z,99163.02
2018-08-25T04:59:56.889Z,99163.37
2018-08-25T05:00:28.009Z,99164.51
2018-08-25T05:00:59.250Z,99161.98
2018-08-25T05:01:30.409Z,99162.33
2018-08-25T05:02:01.634Z,99164.86
2018-08-25T05:02:32.673Z,99162.80
2018-08-25T05:03:03.805Z,99163.05
2018-08-25T05:03:34.940Z,99160.63
2018-08-25T05:04:06.059Z,99161.42
2018-08-25T05:04:37.183Z,99160.08
2018-08-25T05:05:08.400Z,99164.83
2018-08-25T05:05:39.591Z,99164.85
2018-08-25T05:06:10.735Z,99158.77
2018-08-25T05:06:41.910Z,99166.06
2018-08-25T05:07:13.162Z,99162.58
2018-08-25T05:07:44.364Z,99164.85
2018-08-25T05:08:15.435Z,99163.57
2018-08-25T05:08:46.648Z,99165.52
2018-08-25T05:09:17.826Z,99161.67
2018-08-25T05:09:48.997Z,99162.36
2018-08-25T05:10:20.185Z,99163.76
2018-08-25T05:10:51.355Z,99161.24
2018-08-25T05:11:22.527Z,99158.23
2018-08-25T05:11:53.647Z,99156.53
2018-08-25T05:12:24.769Z,99159.55
2018-08-25T05:12:55.945Z,99160.16
2018-08-25T05:13:27.116Z,99158.33
2018-08-25T05:13:58.305Z,99160.08
2018-08-25T05:14:29.484Z,99157.08
2018-08-25T05:15:00.603Z,99162.44
2018-08-25T05:15:31.715Z,99161.91
2018-08-25T05:16:02.883Z,99157.27
2018-08-25T05:16:34.079Z,99156.79
2018-08-25T05:17:05.269Z,99159.95
2018-08-25T05:17:36.469Z,99160.92
2018-08-25T05:18:07.644Z,99161.10
2018-08-25T05:18:38.895Z,99157.43
2018-08-25T05:19:10.100Z,99157.33
2018-08-25T05:19:41.272Z,99158.61
2018-08-25T05:20:12.469Z,99165.34
2018-08-25T05:20:43.646Z,99159.73
2018-08-25T05:21:14.887Z,99160.31
2018-08-25T05:21:46.143Z,99162.87
2018-08-25T05:22:17.339Z,99157.88
2018-08-25T05:22:48.567Z,99158.05
2018-08-25T05:23:19.748Z,99157.89
2018-08-25T05:23:50.991Z,99157.93
2018-08-25T05:24:22.167Z,99158.40
2018-08-25T05:24:53.292Z,99161.88
2018-08-25T05:25:24.411Z,99157.82
2018-08-25T05:25:55.536Z,99156.30
2018-08-25T05:26:26.717Z,99162.02
2018-08-25T05:26:57.998Z,99157.50
2018-08-25T05:27:29.131Z,99164.51
2018-08-25T05:28:00.282Z,99162.70
2018-08-25T05:28:31.477Z,99163.05
2018-08-25T05:29:02.705Z,99157.69
2018-08-25T05:29:33.838Z,99159.34
2018-08-25T05:30:05.025Z,99159.34
2018-08-25T05:30:36.193Z,99161.38
2018-08-25T05:31:07.315Z,99159.41
2018-08-25T05:31:38.449Z,99157.72
2018-08-25T05:32:09.678Z,99153.16
2018-08-25T05:32:40.905Z,99160.22
2018-08-25T05:33:12.080Z,99155.20
2018-08-25T05:33:43.255Z,99153.85
2018-08-25T05:34:14.391Z,99157.41
2018-08-25T05:34:45.605Z,99154.21
2018-08-25T05:35:16.853Z,99151.36
2018-08-25T05:35:47.980Z,99153.05
2018-08-25T05:36:19.113Z,99155.90
2018-08-25T05:36:50.303Z,99151.00
2018-08-25T05:37:21.509Z,99149.75
2018-08-25T05:37:52.626Z,99149.17
2018-08-25T05:38:23.804Z,99148.83
2018-08-25T05:38:54.977Z,99153.09
2018-08-25T05:39:26.157Z,99153.27
2018-08-25T05:39:57.293Z,99149.84
2018-08-25T05:40:28.472Z,99150.34
2018-08-25T05:40:59.701Z,99159.55
2018-08-25T05:41:30.831Z,99156.17
2018-08-25T05:42:02.027Z,99150.83
2018-08-25T05:42:33.152Z,99158.20
2018-08-25T05:43:04.388Z,99153.64
2018-08-25T05:43:35.551Z,99155.34
2018-08-25T05:44:06.745Z,99156.87
2018-08-25T05:44:37.925Z,99155.48
2018-08-25T05:45:09.091Z,99155.92
2018-08-25T05:45:40.220Z,99152.17
2018-08-25T05:46:11.340Z,99152.09
2018-08-25T05:46:42.515Z,99156.53
2018-08-25T05:47:13.707Z,99157.61
2018-08-25T05:47:44.828Z,99166.62
2018-08-25T05:48:15.985Z,99164.91
2018-08-25T05:48:47.160Z,99163.11
2018-08-25T05:49:18.345Z,99160.30
2018-08-25T05:49:49.481Z,99158.94
2018-08-25T05:50:20.600Z,99158.12
2018-08-25T05:50:51.817Z,99160.44
2018-08-25T05:51:22.932Z,99165.42
2018-08-25T05:51:54.064Z,99163.28
2018-08-25T05:52:25.256Z,99160.23
2018-08-25T05:52:56.396Z,99159.51
2018-08-25T05:53:27.517Z,99161.84
2018-08-25T05:53:58.735Z,99160.73
2018-08-25T05:54:29.870Z,99164.63
2018-08-25T05:55:01.048Z,99163.72
2018-08-25T05:55:32.173Z,99165.44
2018-08-25T05:56:03.293Z,99165.48
2018-08-25T05:56:34.475Z,99170.73
2018-08-25T05:57:05.645Z,99164.07
2018-08-25T05:57:36.853Z,99165.94
2018-08-25T05:58:08.022Z,99169.23
2018-08-25T05:58:39.250Z,99170.86
2018-08-25T05:59:10.479Z,99169.52
2018-08-25T05:59:41.711Z,99167.55
2018-08-25T06:00:12.848Z,99171.05
2018-08-25T06:00:44.014Z,99170.51
2018-08-25T06:01:15.245Z,99171.24
2018-08-25T06:01:46.377Z,99171.05
2018-08-25T06:02:17.560Z,99169.20
2018-08-25T06:02:48.732Z,99172.39
2018-08-25T06:03:19.968Z,99171.14
2018-08-25T06:03:51.103Z,99173.15
2018-08-25T06:04:22.328Z,99177.00
2018-08-25T06:04:53.505Z,99172.98
2018-08-25T06:05:24.646Z,99170.13
2018-08-25T06:05:55.807Z,99174.03
2018-08-25T06:06:26.996Z,99171.38
2018-08-25T06:06:58.127Z,99172.88
2018-08-25T06:07:29.303Z,99174.17
2018-08-25T06:08:00.470Z,99171.84